Flight Track Log - Related Links

Times and Time Zones

All times are in EDT time to prevent confusion due to time zone crossing. See the EJA941 flight status page for this flight to view local times or setup timezone preferences in your user account.

Time Position Orientation Groundspeed Altitude Reporting Facility
EDT Latitude Longitude Course Direction KTS MPH feet Rate Location/Type
Mon 04:33:28 PM 33.9333 -118.4833 195° South 224 258 3,200  Level Southern California TRACON
Mon 04:35:00 PM 33.9074 -118.2023 112° Southeast  Level Estimated
Mon 04:36:24 PM 33.7594 -118.5389 112° Southeast 272 313 9,900  Level Los Angeles Center
Mon 04:37:27 PM 33.6836 -118.5064 160° South 294 338 12,900 2,256 Climbing Los Angeles Center
Mon 04:38:29 PM 33.6156 -118.4411 141° Southeast 341 392 14,600 1,645 Climbing Los Angeles Center
Mon 04:39:31 PM 33.6072 -118.3153 95° East 395 455 16,300 1,839 Climbing Los Angeles Center
Mon 04:40:33 PM 33.6111 -118.1542 88° East 412 474 18,400 1,694 Climbing Los Angeles Center
Mon 04:41:35 PM 33.6133 -118.0067 89° East 442 509 19,800 1,393 Climbing Los Angeles Center
Mon 04:43:00 PM 33.5938 -117.7730 96° East  Level Estimated
Mon 04:47:48 PM 33.6225 -116.9481 97° East 545 627 28,500  Level Los Angeles Center
Mon 04:49:00 PM 33.6033 -116.7505 97° East  Level Estimated
Mon 04:49:52 PM 33.5736 -116.5592 97° East 557 641 31,500  Level Los Angeles Center
Mon 04:50:00 PM 33.4909 -116.6203 96° East  Level Estimated
Mon 04:50:54 PM 33.5489 -116.3694 99° East 568 654 32,900  Level Los Angeles Center
Mon 04:51:00 PM 33.4753 -116.4558 96° East  Level Estimated
Mon 04:52:00 PM 33.4595 -116.2914 97° East  Level Estimated
Mon 04:52:00 PM 33.5306 -116.1886 90° East  Level Estimated
Mon 04:53:00 PM 33.4435 -116.1271 97° East  Level Estimated
Mon 04:54:00 PM 33.4717 -115.7994 92° East 575 662 37,100  Level Los Angeles Center
Mon 04:55:02 PM 33.4419 -115.5728 99° East 573 659 38,800 1,488 Climbing Los Angeles Center
Mon 04:56:05 PM 33.4189 -115.3919 99° East 555 639 40,200 1,056 Climbing Los Angeles Center
Mon 04:57:07 PM 33.3939 -115.2092 99° East 556 640 41,000 270 Climbing Los Angeles Center
Mon 04:59:00 PM 33.4084 -115.0395 92° East  Level Estimated
Mon 04:59:03 PM 33.3431 -114.8439 99° East 577 664 41,000  Level Albuquerque Center
Mon 05:00:13 PM 33.3108 -114.6422 101° East 582 670 41,000  Level Los Angeles Center
Mon 05:01:15 PM 33.2892 -114.4547 98° East 573 659 41,000  Level Los Angeles Center
Mon 05:02:17 PM 33.2550 -114.2278 100° East 577 664 41,000  Level Los Angeles Center
Mon 05:03:10 PM 33.2328 -114.0886 101° East 580 667 41,000  Level Albuquerque Center
Mon 05:04:12 PM 33.1997 -113.8656 100° East 575 662 41,000  Level Albuquerque Center
Mon 05:05:14 PM 33.1717 -113.6778 100° East 576 663 41,000  Level Albuquerque Center
Mon 05:08:30 PM 33.0806 -113.0817 100° East 586 674 41,000  Level Los Angeles Center
Mon 05:09:21 PM 33.0569 -112.9342 101° East 571 657 41,000  Level Albuquerque Center
Mon 05:10:23 PM 33.0225 -112.7133 100° East 570 656 41,000  Level Albuquerque Center
Mon 05:11:25 PM 32.9908 -112.5197 101° East 573 659 41,000  Level Albuquerque Center
Mon 05:13:29 PM 32.9317 -112.1556 101° East 576 663 41,000  Level Albuquerque Center
Mon 05:15:00 PM 32.8873 -111.9087 102° East  Level FlightAware Approximate
Mon 05:18:38 PM 32.7706 -111.1953 101° East 573 659 41,000  Level Albuquerque Center
Mon 05:19:40 PM 32.7383 -111.0097 102° East 575 662 41,000  Level Albuquerque Center
Mon 05:21:00 PM 32.7088 -110.7910 99° East  Level Estimated
Mon 05:21:43 PM 32.6669 -110.6067 99° East 574 661 41,000  Level Albuquerque Center
Mon 05:22:00 PM 32.6766 -110.7724 102° East  Level FlightAware Approximate
Mon 05:23:00 PM 32.6460 -110.6101 101° East  Level FlightAware Approximate
Mon 05:23:00 PM 32.6219 -110.4005 104° East  Level FlightAware Approximate
Mon 05:24:49 PM 32.5692 -110.0589 102° East 574 661 41,000  Level Albuquerque Center
Mon 05:26:00 PM 32.5293 -109.8685 104° East  Level FlightAware Approximate
Mon 05:26:53 PM 32.4919 -109.6558 104° East 582 670 41,000  Level Albuquerque Center
Mon 05:28:00 PM 32.4485 -109.4782 106° East  Level FlightAware Approximate
Mon 05:28:56 PM 32.4236 -109.2922 106° East 574 661 41,000  Level Albuquerque Center
Mon 05:29:58 PM 32.3903 -109.1106 102° East 575 662 41,000  Level Albuquerque Center
Mon 05:30:00 PM 32.4056 -109.2685 102° East  Level FlightAware Approximate
Mon 05:31:00 PM 32.3475 -108.8939 103° East 574 661 41,000  Level Albuquerque Center
Mon 05:32:02 PM 32.3133 -108.7122 102° East 573 659 41,000  Level Albuquerque Center
Mon 05:33:03 PM 32.2778 -108.5300 103° East 576 663 41,000  Level Albuquerque Center
Mon 05:34:05 PM 32.2406 -108.3419 103° East 575 662 41,000  Level Albuquerque Center
Mon 05:36:00 PM 32.1673 -108.0370 103° East  Level FlightAware Approximate
Mon 05:37:10 PM 32.1306 -107.7919 103° East 578 665 41,000  Level Albuquerque Center
Mon 05:38:12 PM 32.0869 -107.5728 103° East 578 665 41,000  Level Albuquerque Center
Mon 05:40:15 PM 32.0125 -107.2100 104° East 574 661 41,000  Level Albuquerque Center
Mon 05:41:17 PM 31.9761 -107.0292 103° East 574 661 41,000  Level Albuquerque Center
Mon 05:42:19 PM 31.9375 -106.8492 104° East 574 661 41,000  Level Albuquerque Center
Mon 05:43:20 PM 31.8911 -106.6319 104° East 576 663 41,000 -49 Level Albuquerque Center
Mon 05:44:22 PM 31.8575 -106.4725 104° East 580 667 40,900  Descending Albuquerque Center
Mon 05:45:24 PM 31.8200 -106.2889 103° East 580 667 41,000 49 Climbing Albuquerque Center
Mon 05:46:25 PM 31.7894 -106.0675 99° East 573 659 41,000  Level Albuquerque Center
Mon 05:47:27 PM 31.7664 -105.8803 98° East 578 665 41,000  Level Albuquerque Center
Mon 05:48:29 PM 31.7447 -105.6925 98° East 579 666 41,000  Level Albuquerque Center
Mon 05:49:30 PM 31.7217 -105.5056 98° East 578 665 41,000  Level Albuquerque Center
Mon 05:50:32 PM 31.6983 -105.3200 98° East 575 662 41,000  Level Albuquerque Center
Mon 05:51:34 PM 31.6764 -105.1369 98° East 570 656 41,000  Level Albuquerque Center
Mon 05:52:35 PM 31.6531 -104.9553 99° East 562 647 41,000  Level Albuquerque Center
Mon 05:55:00 PM 31.6286 -104.7659 99° East  Level FlightAware Approximate
Mon 05:55:40 PM 31.5789 -104.3694 99° East 563 648 41,000  Level Albuquerque Center
Mon 05:57:59 PM 31.5172 -103.9750 100° East 569 655 41,000 -32 Level Houston Center
Mon 05:58:45 PM 31.5050 -103.8175 95° East 572 658 40,900  Descending Albuquerque Center
Mon 05:59:47 PM 31.4803 -103.6433 99° East 572 658 41,000  Climbing Albuquerque Center
Mon 06:00:49 PM 31.4506 -103.4308 99° East 557 641 40,900 -49 Descending Albuquerque Center
Mon 06:01:50 PM 31.4294 -103.2528 98° East 553 636 40,900  Level Albuquerque Center
Mon 06:04:55 PM 31.3617 -102.7242 98° East 548 631 40,900 24 Level Albuquerque Center
Mon 06:05:57 PM 31.3394 -102.5494 98° East 545 627 41,000 49 Climbing Albuquerque Center
Mon 06:06:58 PM 31.3161 -102.3656 98° East 556 640 41,000  Level Albuquerque Center
Mon 06:08:00 PM 31.2922 -102.1919 99° East 548 631 41,000  Level Albuquerque Center
Mon 06:09:02 PM 31.2642 -101.9792 99° East 552 635 41,000  Level Albuquerque Center
Mon 06:11:05 PM 31.2192 -101.6458 99° East 552 635 41,000  Level Albuquerque Center
Mon 06:13:00 PM 31.1742 -101.3377 100° East  Level FlightAware Approximate
Mon 06:18:41 PM 31.0272 -100.2853 100° East 572 658 41,000  Level Houston Center
Mon 06:20:00 PM 31.0040 -100.2150 100° East  Level FlightAware Approximate
Mon 06:20:00 PM 30.9654 -100.0835 110° East  Level Estimated
Mon 06:20:45 PM 30.9678 -99.8867 110° East 567 652 40,500  Level Houston Center
Mon 06:21:00 PM 30.9796 -100.0549 99° East  Level FlightAware Approximate
Mon 06:21:47 PM 30.9414 -99.7089 100° East 560 644 36,900  Level Houston Center
Mon 06:22:00 PM 30.9582 -99.8941 99° East  Level FlightAware Approximate
Mon 06:22:49 PM 30.9136 -99.5286 100° East 562 647 33,900  Level Houston Center
Mon 06:23:00 PM 30.9389 -99.7334 101° East  Level FlightAware Approximate
Mon 06:24:00 PM 30.9126 -99.5738 100° East  Level FlightAware Approximate
Mon 06:24:00 PM 30.8757 -99.3411 102° East  Level FlightAware Approximate
Mon 06:26:58 PM 30.8036 -98.8261 139° Southeast 506 582 22,200  Level Houston Center
Mon 06:29:02 PM 30.7669 -98.5050 97° East 494 568 16,800 -2,645 Descending Houston Center
Mon 06:30:04 PM 30.7486 -98.3317 97° East 460 529 14,000 -2,565 Descending Houston Center
Mon 06:31:00 PM 30.7253 -98.2213 98° East  Level FlightAware Approximate
Mon 06:31:06 PM 30.7336 -98.1858 97° East 452 520 11,500  Level Houston Center
Mon 06:32:00 PM 30.7122 -98.0622 139° Southeast  Level FlightAware Approximate
Mon 06:32:08 PM 30.7106 -98.0622 102° East 404 465 10,000  Level Houston Center
Mon 06:34:00 PM 30.5567 -97.8184 128° Southeast  Level FlightAware Approximate
Mon 06:35:14 PM 30.5489 -97.8531 128° Southeast 279 321 5,400  Level Houston Center
Mon 06:36:16 PM 30.4747 -97.7936 145° Southeast 276 318 3,300 -935 Descending Houston Center
Mon 06:38:20 PM 30.3519 -97.6964 146° Southeast 268 308 2,500 -321 Descending Houston Center
Mon 06:39:23 PM 30.2881 -97.6578 152° Southeast 267 307 2,300 -672 Descending Houston Center
Mon 06:40:25 PM 30.2294 -97.6569 179° South 222 255 1,100 -1,161 Descending Houston Center
Mon 06:42:00 PM 30.1945 -97.6699 221° Southwest  Level Estimated
Mon 06:49:00 PM 30.1945 -97.6699 221° Southwest  Level Estimated
Mon 06:50:00 PM 30.1945 -97.6699 221° Southwest  Level Estimated
Mon 06:51:00 PM 30.1945 -97.6699 221° Southwest  Level Estimated
Mon 06:52:00 PM 30.1945 -97.6699 221° Southwest  Level Estimated
Mon 06:53:00 PM 30.1945 -97.6699 221° Southwest  Level Estimated
Mon 06:54:00 PM 30.1945 -97.6699 221° Southwest  Level Estimated
Mon 06:55:00 PM 30.1945 -97.6699 221° Southwest  Level Estimated
Mon 06:56:00 PM 30.1945 -97.6699 221° Southwest  Level Estimated
Mon 06:57:00 PM 30.1945 -97.6699 221° Southwest  Level Estimated
Mon 06:58:00 PM 30.1945 -97.6699 221° Southwest  Level Estimated
Mon 06:59:00 PM 30.1945 -97.6699 221° Southwest  Level Estimated
Mon 07:00:00 PM 30.1945 -97.6699 221° Southwest  Level Estimated
Mon 07:01:00 PM 30.1945 -97.6699 221° Southwest  Level Estimated

Login

Don't have an account? Register now (free) for customized features, flight alerts, and more!